KEND

Vance AFB Airport

Enid, Oklahoma, USA
METAR KEND 210656Z AUTO 04004KT M +DZ CLR 15/15 A3007 RMK AO2 DZB21 SLP179 P0000 T01510151 RVRNO $
Observed Flight Rules
May-21 @ 06:56 UTC (24 minutes ago)
Wind Clouds Conditions
40° at 4 knots
  • Clear skies
  • Heavy Drizzle
Temperatures Readings Precipitation
Current 15°C / 59°F
Dewpoint 15°C / 59°F
Humidity 100%
Altimeter 30.07" Hg
Pressure 1017.9 hPa
Elevation 398
Current Rain 0.005
METAR KEND 210656Z AUTO 04004KT M +DZ CLR 15/15 A3007 RMK AO2 DZB21 SLP179 P0000 T01510151 RVRNO $
Observed Flight Rules
May-21 @ 06:56 UTC
(24 minutes ago)
Wind
40° at 4 knots
Clouds
  • Clear skies
Conditions
  • Heavy Drizzle
Temperature Dewpoint
15°C / 59°F 15°C / 59°F
Humidity Altimeter Pressure
100% 30.07" Hg 1017.9 hPa
Current Rain
0.005